Time;durP1;ratioP1;P1;durP2;ratioP2;P2;SDS_P1;SDS_P2;PMS_P1;PMS_P2;Temp;Humidity;BMP_temperature;BMP_pressure;BME280_temperature;BME280_humidity;BME280_pressure;Samples;Min_cycle;Max_cycle;Signal;HPM_P1;HPM_P2
2023/07/30 00:00:06;;;;;;;4.57;2.00;;;;;;;17.56;100.00;97651.84;5069886;28;20712;-77
2023/07/30 00:02:32;;;;;;;3.23;1.90;;;;;;;17.47;100.00;97647.31;5070311;28;20312;-77
2023/07/30 00:04:58;;;;;;;2.03;1.70;;;;;;;17.44;100.00;97634.41;5070279;28;20205;-77
2023/07/30 00:07:25;;;;;;;1.20;1.10;;;;;;;17.50;100.00;97649.47;5070030;28;20240;-77
2023/07/30 00:09:51;;;;;;;1.93;1.60;;;;;;;17.49;100.00;97639.75;5069761;28;20228;-77
2023/07/30 00:12:18;;;;;;;1.37;1.27;;;;;;;17.53;100.00;97635.44;5069647;28;20571;-77
2023/07/30 00:14:44;;;;;;;2.03;1.47;;;;;;;17.50;100.00;97642.19;5070186;28;20204;-77
2023/07/30 00:17:10;;;;;;;2.03;1.40;;;;;;;17.55;100.00;97630.63;5070035;28;20196;-77
2023/07/30 00:19:37;;;;;;;1.73;1.40;;;;;;;17.47;100.00;97639.25;5070037;28;20224;-77
2023/07/30 00:22:03;;;;;;;3.77;1.70;;;;;;;17.49;100.00;97642.44;5069912;28;20378;-77
2023/07/30 00:24:30;;;;;;;2.73;1.53;;;;;;;17.45;100.00;97641.38;5069903;28;20576;-77
2023/07/30 00:26:56;;;;;;;2.43;1.70;;;;;;;17.40;100.00;97644.06;5069490;28;20224;-77
2023/07/30 00:29:22;;;;;;;3.77;1.50;;;;;;;17.60;100.00;97641.38;5070497;28;20231;-76
2023/07/30 00:31:50;;;;;;;2.10;1.53;;;;;;;17.44;100.00;97653.22;5071287;28;20508;-76
2023/07/30 00:34:17;;;;;;;2.67;1.60;;;;;;;17.38;100.00;97663.13;5071030;28;20209;-76
2023/07/30 00:36:43;;;;;;;2.13;1.40;;;;;;;17.34;100.00;97662.09;5069599;28;20200;-76
2023/07/30 00:39:11;;;;;;;1.90;1.20;;;;;;;17.36;100.00;97667.97;5058910;28;20232;-76
2023/07/30 00:41:37;;;;;;;1.40;1.23;;;;;;;17.29;100.00;97664.75;5056295;28;20216;-76
2023/07/30 00:44:04;;;;;;;3.47;1.23;;;;;;;17.43;100.00;97673.94;5056006;28;20216;-76
2023/07/30 00:46:31;;;;;;;2.33;1.50;;;;;;;17.52;100.00;97666.91;5055924;28;20572;-76
2023/07/30 00:48:58;;;;;;;2.00;1.77;;;;;;;17.49;100.00;97669.31;5055080;28;20228;-77
2023/07/30 00:51:25;;;;;;;2.17;1.97;;;;;;;17.69;100.00;97655.84;5056263;28;20216;-77
2023/07/30 00:53:51;;;;;;;3.40;1.73;;;;;;;17.64;100.00;97670.09;5056266;28;20205;-76
2023/07/30 00:56:18;;;;;;;3.40;2.10;;;;;;;17.47;100.00;97671.50;5056072;28;20572;-76
2023/07/30 00:58:45;;;;;;;2.90;2.70;;;;;;;17.62;100.00;97672.28;5056021;28;20221;-77
2023/07/30 01:01:12;;;;;;;3.33;3.03;;;;;;;17.65;100.00;97671.69;5055996;28;20219;-77
2023/07/30 01:03:38;;;;;;;4.00;3.50;;;;;;;17.75;100.00;97670.88;5055942;28;20209;-77
2023/07/30 01:06:05;;;;;;;6.53;4.23;;;;;;;17.81;100.00;97680.53;5055641;28;20232;-77
2023/07/30 01:08:32;;;;;;;5.53;4.47;;;;;;;17.76;100.00;97692.13;5055021;28;20613;-77
2023/07/30 01:10:59;;;;;;;4.30;3.97;;;;;;;17.89;100.00;97686.16;5055516;28;20216;-77
2023/07/30 01:13:26;;;;;;;4.40;3.93;;;;;;;18.05;100.00;97682.34;5056117;28;20679;-77
2023/07/30 01:15:53;;;;;;;4.37;3.97;;;;;;;17.98;100.00;97679.16;5055366;28;20251;-77
2023/07/30 01:18:19;;;;;;;5.00;4.50;;;;;;;17.99;100.00;97678.06;5055584;28;20256;-77
2023/07/30 01:20:46;;;;;;;3.50;3.20;;;;;;;18.04;100.00;97674.53;5055578;28;20225;-77
2023/07/30 01:23:12;;;;;;;3.90;3.60;;;;;;;18.06;100.00;97685.84;5055693;28;20205;-77
2023/07/30 01:25:40;;;;;;;4.47;3.57;;;;;;;18.09;100.00;97696.06;5055082;28;20664;-77
2023/07/30 01:28:12;;;;;;;3.27;2.97;;;;;;;18.07;100.00;97688.25;5055062;28;20236;-76
2023/07/30 01:30:42;;;;;;;4.47;3.40;;;;;;;18.04;100.00;97693.38;5057645;28;20185;-76
2023/07/30 01:33:10;;;;;;;4.30;3.90;;;;;;;18.12;100.00;97690.94;5057208;28;20213;-76
2023/07/30 01:35:38;;;;;;;6.10;3.60;;;;;;;18.24;100.00;97695.97;5055531;28;20208;-76
2023/07/30 01:38:05;;;;;;;4.57;3.63;;;;;;;18.24;100.00;97694.06;5055229;28;20201;-77
2023/07/30 01:40:33;;;;;;;6.47;4.53;;;;;;;18.22;100.00;97693.56;5054972;28;20669;-77
2023/07/30 01:42:59;;;;;;;4.13;3.73;;;;;;;18.20;100.00;97697.63;5054909;28;20216;-77
2023/07/30 01:45:26;;;;;;;4.03;3.73;;;;;;;18.15;100.00;97703.03;5055139;28;20220;-76
2023/07/30 01:47:53;;;;;;;5.73;3.53;;;;;;;18.12;100.00;97711.63;5055106;28;20236;-76
2023/07/30 01:50:19;;;;;;;4.20;3.80;;;;;;;18.03;100.00;97705.22;5054026;28;20229;-76
2023/07/30 01:52:45;;;;;;;4.93;3.87;;;;;;;17.96;100.00;97702.03;5055062;28;20205;-76
2023/07/30 01:55:12;;;;;;;4.30;3.60;;;;;;;17.90;100.00;97711.16;5058878;28;20203;-76
2023/07/30 01:57:39;;;;;;;3.40;3.10;;;;;;;17.94;100.00;97702.28;5066963;28;20200;-77
2023/07/30 02:00:06;;;;;;;4.13;3.73;;;;;;;17.88;100.00;97703.38;5071465;28;20220;-77
2023/07/30 02:02:32;;;;;;;4.03;3.37;;;;;;;17.86;100.00;97705.53;5054782;28;20205;-77
2023/07/30 02:04:58;;;;;;;3.70;3.23;;;;;;;17.83;100.00;97708.75;5055026;28;20212;-77
2023/07/30 02:07:25;;;;;;;4.13;3.40;;;;;;;17.96;100.00;97702.81;5056337;28;20232;-77
2023/07/30 02:09:51;;;;;;;10.60;3.90;;;;;;;17.85;100.00;97703.94;5074629;28;20220;-77
2023/07/30 02:12:17;;;;;;;4.07;3.77;;;;;;;17.85;100.00;97703.94;5074314;28;20208;-77
2023/07/30 02:14:44;;;;;;;4.20;3.83;;;;;;;17.79;100.00;97705.03;5073920;28;20693;-77
2023/07/30 02:17:10;;;;;;;3.97;3.40;;;;;;;17.77;100.00;97699.09;5054494;28;20202;-77
2023/07/30 02:19:36;;;;;;;4.00;3.70;;;;;;;17.69;100.00;97696.19;5054331;28;20225;-77
2023/07/30 02:22:03;;;;;;;4.07;3.67;;;;;;;17.73;100.00;97689.97;5054317;28;20211;-77
2023/07/30 02:24:29;;;;;;;3.97;3.67;;;;;;;17.76;100.00;97696.69;5054114;28;20301;-77
2023/07/30 02:26:56;;;;;;;4.10;3.80;;;;;;;17.84;100.00;97685.38;5071723;28;20296;-77
2023/07/30 02:29:26;;;;;;;5.03;4.07;;;;;;;17.78;100.00;97700.72;5075313;28;20301;-77
2023/07/30 02:31:52;;;;;;;4.10;3.73;;;;;;;17.78;100.00;97694.53;5076138;28;20209;-77
2023/07/30 02:34:18;;;;;;;5.93;3.70;;;;;;;17.87;100.00;97709.81;5075291;28;20200;-77
2023/07/30 02:36:45;;;;;;;3.63;3.27;;;;;;;17.87;100.00;97717.09;5057845;28;20201;-77
2023/07/30 02:39:11;;;;;;;4.27;3.63;;;;;;;17.90;100.00;97716.53;5054111;28;20833;-77
2023/07/30 02:41:38;;;;;;;4.60;4.17;;;;;;;17.89;100.00;97713.06;5054787;28;20293;-77
2023/07/30 02:44:04;;;;;;;4.03;3.63;;;;;;;17.90;100.00;97711.97;5054359;28;20212;-77
2023/07/30 02:46:30;;;;;;;4.27;3.40;;;;;;;17.91;100.00;97718.19;5055116;28;20198;-77
2023/07/30 02:48:57;;;;;;;4.53;3.03;;;;;;;17.90;100.00;97716.53;5055113;28;20229;-77
2023/07/30 02:51:23;;;;;;;2.80;2.60;;;;;;;17.82;100.00;97725.19;5058400;28;20211;-78
2023/07/30 02:53:53;;;;;;;4.20;2.70;;;;;;;17.96;100.00;97718.94;5075121;28;20216;-78
2023/07/30 02:56:20;;;;;;;4.80;3.00;;;;;;;17.84;100.00;97710.41;5075744;28;20193;-77
2023/07/30 02:58:46;;;;;;;6.73;2.73;;;;;;;17.78;100.00;97708.00;5075439;28;20312;-77
2023/07/30 03:01:12;;;;;;;3.23;3.00;;;;;;;17.71;100.00;97712.81;5071062;28;20698;-78
2023/07/30 03:03:39;;;;;;;2.70;2.53;;;;;;;17.71;100.00;97705.59;5055673;28;20284;-78
2023/07/30 03:06:05;;;;;;;3.30;2.90;;;;;;;17.71;100.00;97719.03;5055888;28;20201;-78
2023/07/30 03:08:32;;;;;;;4.10;3.43;;;;;;;17.70;100.00;97716.59;5055760;28;20239;-78
2023/07/30 03:11:00;;;;;;;3.20;2.80;;;;;;;17.64;100.00;97707.72;5056072;28;20567;-78
2023/07/30 03:13:27;;;;;;;3.60;3.30;;;;;;;17.75;100.00;97713.91;5075527;28;20208;-78
2023/07/30 03:15:53;;;;;;;5.37;3.33;;;;;;;17.75;100.00;97721.97;5076312;28;20212;-78
2023/07/30 03:18:20;;;;;;;4.07;3.70;;;;;;;17.72;100.00;97722.50;5076510;28;20236;-78
2023/07/30 03:20:46;;;;;;;3.60;3.30;;;;;;;17.79;100.00;97715.78;5076014;28;20208;-78
2023/07/30 03:23:12;;;;;;;4.47;3.40;;;;;;;17.85;100.00;97714.69;5056999;28;20212;-78
2023/07/30 03:25:39;;;;;;;3.50;3.30;;;;;;;17.90;100.00;97719.22;5057336;28;20656;-78
2023/07/30 03:28:05;;;;;;;4.10;3.73;;;;;;;17.91;100.00;97723.56;5055809;28;20267;-78
2023/07/30 03:30:32;;;;;;;3.63;3.33;;;;;;;17.92;100.00;97717.88;5056815;28;20576;-78
2023/07/30 03:32:58;;;;;;;3.03;2.73;;;;;;;17.93;100.00;97724.88;5073203;28;20201;-78
2023/07/30 03:35:25;;;;;;;3.00;2.70;;;;;;;17.90;100.00;97722.75;5076327;28;20214;-78
2023/07/30 03:37:52;;;;;;;4.90;3.33;;;;;;;17.78;100.00;97724.13;5075423;28;20723;-78
2023/07/30 03:40:18;;;;;;;3.30;2.87;;;;;;;17.78;100.00;97722.22;5076046;28;20228;-78
2023/07/30 03:42:45;;;;;;;4.93;2.90;;;;;;;17.78;100.00;97713.38;5061181;28;20212;-78
2023/07/30 03:45:11;;;;;;;2.87;2.30;;;;;;;17.88;100.00;97719.53;5055571;28;20221;-78
2023/07/30 03:47:37;;;;;;;3.50;2.67;;;;;;;17.79;100.00;97723.84;5055906;28;20595;-78
2023/07/30 03:50:04;;;;;;;3.70;2.40;;;;;;;17.78;100.00;97735.66;5057163;28;20251;-79
2023/07/30 03:52:30;;;;;;;4.00;2.63;;;;;;;17.82;100.00;97731.34;5057891;28;20280;-78
2023/07/30 03:54:57;;;;;;;3.20;2.80;;;;;;;17.77;100.00;97731.38;5056314;28;20607;-78
2023/07/30 03:57:23;;;;;;;2.27;2.07;;;;;;;17.96;100.00;97737.78;5056141;28;20206;-78
2023/07/30 03:59:49;;;;;;;2.90;2.60;;;;;;;17.90;100.00;97738.06;5057098;28;20221;-79
2023/07/30 04:02:16;;;;;;;4.57;3.00;;;;;;;17.91;100.00;97740.47;5057757;28;20207;-78
2023/07/30 04:04:44;;;;;;;4.37;3.40;;;;;;;17.89;100.00;97741.84;5060027;28;20201;-77
2023/07/30 04:07:11;;;;;;;5.20;3.00;;;;;;;17.83;100.00;97749.09;5072745;28;20728;-77
2023/07/30 04:09:37;;;;;;;3.00;2.70;;;;;;;17.80;100.00;97743.47;5073016;28;20224;-77
2023/07/30 04:12:04;;;;;;;2.77;2.57;;;;;;;17.84;100.00;97739.16;5069489;28;20205;-77
2023/07/30 04:14:30;;;;;;;3.50;3.17;;;;;;;17.90;100.00;97743.44;5056719;28;20206;-77
2023/07/30 04:16:57;;;;;;;5.30;3.23;;;;;;;17.82;100.00;97744.81;5058441;28;20731;-78
2023/07/30 04:19:23;;;;;;;4.70;3.20;;;;;;;17.87;100.00;97735.94;5059486;28;20271;-78
2023/07/30 04:21:49;;;;;;;3.57;3.27;;;;;;;17.85;100.00;97741.56;5065919;28;20212;-78
2023/07/30 04:24:16;;;;;;;6.00;3.20;;;;;;;17.81;100.00;97737.81;5068652;28;20202;-78
2023/07/30 04:26:42;;;;;;;3.00;2.80;;;;;;;17.95;100.00;97751.50;5059309;28;20254;-78
2023/07/30 04:29:10;;;;;;;3.70;3.40;;;;;;;17.94;100.00;97758.78;5060289;28;20236;-78
2023/07/30 04:31:36;;;;;;;5.20;3.40;;;;;;;17.95;100.00;97768.44;5061644;28;20205;-78
2023/07/30 04:34:02;;;;;;;3.37;3.07;;;;;;;17.91;100.00;97770.06;5069264;28;20199;-78
2023/07/30 04:36:29;;;;;;;3.37;2.90;;;;;;;17.91;100.00;97766.59;5079934;28;20208;-78
2023/07/30 04:38:55;;;;;;;7.00;3.00;;;;;;;17.82;100.00;97773.59;5079977;28;20228;-78
2023/07/30 04:41:22;;;;;;;2.67;2.47;;;;;;;17.91;100.00;97780.03;5078614;28;20247;-78
2023/07/30 04:43:48;;;;;;;4.90;2.70;;;;;;;17.89;100.00;97782.16;5081104;28;20214;-79
2023/07/30 04:46:14;;;;;;;3.20;2.90;;;;;;;17.93;100.00;97775.19;5081254;28;20671;-79
2023/07/30 04:48:41;;;;;;;3.47;2.70;;;;;;;17.85;100.00;97781.91;5080865;28;20251;-79
2023/07/30 04:51:08;;;;;;;4.40;3.10;;;;;;;17.96;100.00;97775.44;5078267;28;20235;-78
2023/07/30 04:53:34;;;;;;;4.13;2.90;;;;;;;17.92;100.00;97768.97;5059863;28;20209;-78
2023/07/30 04:56:00;;;;;;;3.10;2.87;;;;;;;17.92;100.00;97766.28;5060470;28;20664;-78
2023/07/30 04:58:27;;;;;;;6.10;3.10;;;;;;;17.90;100.00;97773.03;5060843;28;20224;-78
2023/07/30 05:00:53;;;;;;;4.63;2.87;;;;;;;17.91;100.00;97772.75;5060133;28;20206;-79
2023/07/30 05:03:19;;;;;;;4.50;3.20;;;;;;;18.02;100.00;97784.31;5060553;28;20202;-78
2023/07/30 05:05:46;;;;;;;3.10;2.90;;;;;;;18.02;100.00;97785.13;5060516;28;20209;-78
2023/07/30 05:08:12;;;;;;;5.97;2.73;;;;;;;17.97;100.00;97778.94;5078432;28;20212;-79
2023/07/30 05:10:39;;;;;;;4.27;2.63;;;;;;;17.97;100.00;97781.63;5079837;28;20200;-79
2023/07/30 05:13:05;;;;;;;3.00;2.40;;;;;;;18.07;100.00;97795.88;5080355;28;20277;-78
2023/07/30 05:15:31;;;;;;;3.67;2.40;;;;;;;18.02;100.00;97795.88;5069440;28;20202;-79
2023/07/30 05:17:58;;;;;;;2.60;2.40;;;;;;;18.06;100.00;97806.91;5059756;28;20205;-79
2023/07/30 05:20:24;;;;;;;4.73;2.43;;;;;;;18.09;100.00;97800.97;5059084;28;20305;-79
2023/07/30 05:22:50;;;;;;;2.30;2.10;;;;;;;18.00;100.00;97810.69;5059291;28;20217;-79
2023/07/30 05:25:17;;;;;;;2.20;2.00;;;;;;;18.03;100.00;97805.56;5067176;28;20197;-79
2023/07/30 05:27:43;;;;;;;3.60;2.30;;;;;;;18.00;100.00;97816.06;5078879;28;20235;-79
2023/07/30 05:30:10;;;;;;;3.10;2.20;;;;;;;18.08;100.00;97815.47;5080372;28;20232;-78
2023/07/30 05:32:36;;;;;;;2.40;2.20;;;;;;;18.10;100.00;97819.50;5080659;28;20201;-78
2023/07/30 05:35:02;;;;;;;4.13;2.60;;;;;;;18.09;100.00;97807.16;5071120;28;20200;-77
2023/07/30 05:37:29;;;;;;;4.10;2.37;;;;;;;18.23;100.00;97802.00;5055010;28;20764;-77
2023/07/30 05:39:55;;;;;;;2.90;2.37;;;;;;;18.11;100.00;97796.13;5068354;28;20221;-77
2023/07/30 05:42:22;;;;;;;2.43;2.23;;;;;;;18.04;100.00;97796.41;5074111;28;20201;-78
2023/07/30 05:44:48;;;;;;;3.10;2.27;;;;;;;18.09;100.00;97806.38;5075827;28;20211;-77
2023/07/30 05:47:14;;;;;;;2.47;2.03;;;;;;;18.15;100.00;97800.66;5075839;28;20209;-77
2023/07/30 05:49:41;;;;;;;2.40;2.20;;;;;;;18.16;100.00;97806.88;5075949;28;20235;-77
2023/07/30 05:52:07;;;;;;;2.03;1.80;;;;;;;18.00;100.00;97814.16;5074798;28;20204;-77
2023/07/30 05:54:33;;;;;;;2.27;1.90;;;;;;;18.05;100.00;97808.75;5056107;28;20211;-78
2023/07/30 05:57:00;;;;;;;3.30;2.00;;;;;;;18.13;100.00;97810.91;5056547;28;20205;-77
2023/07/30 05:59:26;;;;;;;3.87;2.13;;;;;;;18.14;100.00;97804.44;5056740;28;20231;-77
2023/07/30 06:01:53;;;;;;;2.00;1.90;;;;;;;18.27;100.00;97798.50;5055527;28;20215;-77
2023/07/30 06:04:19;;;;;;;2.20;2.00;;;;;;;18.21;100.00;97796.91;5075808;28;20197;-77
2023/07/30 06:06:45;;;;;;;2.13;1.93;;;;;;;18.20;100.00;97802.56;5076839;28;20205;-78
2023/07/30 06:09:12;;;;;;;2.13;1.70;;;;;;;18.30;100.00;97795.25;5076439;28;20236;-78
2023/07/30 06:11:38;;;;;;;3.00;1.90;;;;;;;18.28;100.00;97797.41;5077536;28;20230;-78
2023/07/30 06:14:05;;;;;;;1.80;1.70;;;;;;;18.24;100.00;97801.72;5058870;28;20688;-78
2023/07/30 06:16:31;;;;;;;2.10;1.90;;;;;;;18.24;100.00;97798.25;5058051;28;20288;-78
2023/07/30 06:18:57;;;;;;;2.40;1.90;;;;;;;18.44;100.00;97800.88;5057987;28;20225;-78
2023/07/30 06:21:24;;;;;;;2.07;1.90;;;;;;;18.42;100.00;97803.06;5066546;28;20681;-78
2023/07/30 06:23:50;;;;;;;2.60;2.40;;;;;;;18.44;100.00;97803.56;5077255;28;20205;-78
2023/07/30 06:26:17;;;;;;;1.93;1.80;;;;;;;18.47;100.00;97820.00;5077208;28;20303;-78
2023/07/30 06:28:43;;;;;;;2.63;2.40;;;;;;;18.53;100.00;97807.31;5077706;28;20232;-79
2023/07/30 06:31:10;;;;;;;2.30;2.10;;;;;;;18.57;100.00;97798.41;5060531;28;20203;-79
2023/07/30 06:33:37;;;;;;;2.53;2.43;;;;;;;18.55;100.00;97795.19;5059983;28;20283;-79
2023/07/30 06:36:04;;;;;;;5.00;2.50;;;;;;;18.46;100.00;97791.44;5058874;28;20267;-79
2023/07/30 06:38:30;;;;;;;2.53;2.33;;;;;;;18.55;100.00;97799.78;5057704;28;20280;-79
2023/07/30 06:40:57;;;;;;;2.80;2.60;;;;;;;18.65;100.00;97800.53;5074355;28;20205;-79
2023/07/30 06:43:24;;;;;;;4.43;2.83;;;;;;;18.81;100.00;97804.75;5077428;28;20200;-80
2023/07/30 06:45:50;;;;;;;3.10;2.90;;;;;;;18.98;100.00;97825.94;5073039;28;20205;-79
2023/07/30 06:48:17;;;;;;;2.67;2.47;;;;;;;19.00;100.00;97834.59;5075262;28;20225;-80
2023/07/30 06:50:43;;;;;;;3.37;2.90;;;;;;;19.18;100.00;97839.34;5058048;28;20722;-80
2023/07/30 06:53:09;;;;;;;3.00;2.70;;;;;;;19.30;100.00;97834.41;5067199;28;20667;-80
2023/07/30 06:55:36;;;;;;;3.50;2.43;;;;;;;19.26;100.00;97839.56;5066065;28;20212;-80
2023/07/30 06:58:02;;;;;;;2.53;2.30;;;;;;;19.05;100.00;97835.34;5076422;28;20683;-80
2023/07/30 07:00:29;;;;;;;5.03;2.33;;;;;;;19.01;100.00;97836.19;5076562;28;20207;-79
2023/07/30 07:02:55;;;;;;;2.60;2.40;;;;;;;19.10;100.00;97835.31;5077026;28;20205;-79
2023/07/30 07:05:22;;;;;;;2.00;1.90;;;;;;;19.04;100.00;97841.81;5074811;28;20209;-80
2023/07/30 07:07:48;;;;;;;2.60;2.20;;;;;;;19.07;100.00;97838.56;5076475;28;20205;-79
2023/07/30 07:10:15;;;;;;;4.27;2.50;;;;;;;19.17;100.00;97843.09;5076062;28;20228;-80
2023/07/30 07:12:42;;;;;;;17.93;9.27;;;;;;;19.08;100.00;97840.19;5076227;28;20205;-80
2023/07/30 07:15:08;;;;;;;4.50;3.70;;;;;;;19.21;100.00;97847.66;5060543;28;20205;-81
2023/07/30 07:17:35;;;;;;;6.27;4.03;;;;;;;19.21;100.00;97850.34;5073786;28;20656;-80
2023/07/30 07:20:03;;;;;;;36.77;15.67;;;;;;;19.09;100.00;97851.78;5065497;28;20568;-80
2023/07/30 07:22:30;;;;;;;11.77;5.47;;;;;;;19.11;100.00;97847.72;5070175;28;20656;-80
2023/07/30 07:24:56;;;;;;;4.57;3.10;;;;;;;19.21;100.00;97847.66;5059670;28;20240;-80
2023/07/30 07:27:24;;;;;;;5.17;3.57;;;;;;;19.26;100.00;97855.75;5058513;28;20217;-80
2023/07/30 07:29:51;;;;;;;4.30;3.10;;;;;;;19.23;100.00;97864.38;5076640;28;20228;-80
2023/07/30 07:32:17;;;;;;;9.47;4.27;;;;;;;19.19;100.00;97867.88;5077319;28;20212;-79
2023/07/30 07:34:51;;;;;;;6.37;3.10;;;;;;;19.12;100.00;97876.28;5076320;28;20201;-80
2023/07/30 07:37:18;;;;;;;3.03;2.50;;;;;;;18.87;100.00;97899.84;5076802;28;20193;-80
2023/07/30 07:39:45;;;;;;;3.67;2.43;;;;;;;18.78;100.00;97904.97;5071609;28;20287;-79
2023/07/30 07:42:12;;;;;;;3.80;1.80;;;;;;;18.68;100.00;97898.81;5055339;28;20201;-78
2023/07/30 07:44:39;;;;;;;2.20;1.60;;;;;;;18.33;100.00;97894.31;5058768;28;20192;-77
2023/07/30 07:47:05;;;;;;;2.77;2.40;;;;;;;18.30;100.00;97886.75;5074076;28;20204;-78
2023/07/30 07:49:32;;;;;;;3.10;2.13;;;;;;;18.32;100.00;97886.50;5077534;28;20224;-78
2023/07/30 07:51:58;;;;;;;2.80;2.03;;;;;;;18.38;100.00;97893.50;5068356;28;20285;-78
2023/07/30 07:54:25;;;;;;;3.03;1.90;;;;;;;18.41;100.00;97890.28;5072362;28;20269;-79
2023/07/30 07:56:51;;;;;;;2.90;2.33;;;;;;;18.51;100.00;97901.81;5079702;28;20204;-78
2023/07/30 07:59:17;;;;;;;2.40;2.20;;;;;;;18.43;100.00;97888.94;5059012;28;20220;-80
2023/07/30 08:01:44;;;;;;;1.93;1.70;;;;;;;18.69;100.00;97887.75;5059190;28;20555;-79
2023/07/30 08:04:10;;;;;;;3.67;2.20;;;;;;;18.76;100.00;97895.53;5060099;28;20205;-79
2023/07/30 08:06:36;;;;;;;1.73;1.63;;;;;;;18.78;100.00;97896.09;5059137;28;20215;-79
2023/07/30 08:09:03;;;;;;;1.40;1.30;;;;;;;18.70;100.00;97899.34;5059136;28;20225;-79
2023/07/30 08:11:29;;;;;;;2.47;1.83;;;;;;;18.74;100.00;97887.72;5060004;28;20204;-79
2023/07/30 08:13:56;;;;;;;2.80;1.80;;;;;;;18.91;100.00;97893.59;5059913;28;20232;-79
2023/07/30 08:16:23;;;;;;;2.97;1.97;;;;;;;18.99;100.00;97894.91;5059671;28;20296;-78
2023/07/30 08:18:49;;;;;;;3.97;2.40;;;;;;;19.07;100.00;97895.16;5059874;28;20221;-78
2023/07/30 08:21:17;;;;;;;1.57;1.47;;;;;;;19.06;100.00;97903.50;5059610;28;20228;-79
2023/07/30 08:23:44;;;;;;;2.07;1.70;;;;;;;19.12;100.00;97897.84;5078683;28;20207;-79
2023/07/30 08:26:10;;;;;;;2.13;1.57;;;;;;;19.19;100.00;97892.94;5078295;28;20205;-78
2023/07/30 08:28:36;;;;;;;2.90;2.00;;;;;;;19.53;100.00;97893.03;5077666;28;20711;-78
2023/07/30 08:31:03;;;;;;;2.37;1.83;;;;;;;19.36;100.00;97893.41;5078378;28;20571;-78
2023/07/30 08:33:30;;;;;;;2.03;1.73;;;;;;;19.62;100.00;97887.88;5068228;28;20207;-78
2023/07/30 08:35:57;;;;;;;2.17;1.80;;;;;;;19.81;100.00;97894.19;5072702;28;20712;-78
2023/07/30 08:38:24;;;;;;;2.20;1.83;;;;;;;19.81;100.00;97891.50;5076024;28;20235;-78
2023/07/30 08:40:51;;;;;;;3.17;1.50;;;;;;;19.84;100.00;97901.75;5056559;28;20726;-77
2023/07/30 08:43:19;;;;;;;1.77;1.67;;;;;;;19.97;100.00;97890.28;5061525;28;20208;-76
2023/07/30 08:45:45;;;;;;;1.77;1.67;;;;;;;20.18;100.00;97891.75;5062725;28;20219;-77
2023/07/30 08:48:12;;;;;;;1.60;1.50;;;;;;;20.02;100.00;97892.97;5055969;28;20206;-76
2023/07/30 08:50:39;;;;;;;1.53;1.43;;;;;;;20.03;100.00;97900.75;5055517;28;20699;-77
2023/07/30 08:53:07;;;;;;;1.80;1.70;;;;;;;20.03;100.00;97902.66;5067758;28;20203;-77
2023/07/30 08:55:35;;;;;;;2.87;1.50;;;;;;;20.00;100.00;97903.22;5076921;28;20228;-77
2023/07/30 08:58:05;;;;;;;1.90;1.67;;;;;;;19.86;100.00;97903.06;5076342;28;20208;-78
2023/07/30 09:00:35;;;;;;;1.63;1.53;;;;;;;19.80;100.00;97909.56;5075128;28;20200;-78
2023/07/30 09:03:04;;;;;;;2.13;2.00;;;;;;;20.05;100.00;97905.88;5060402;28;20197;-78
2023/07/30 09:05:31;;;;;;;2.17;1.60;;;;;;;20.05;100.00;97911.25;5068021;28;20209;-77
2023/07/30 09:07:59;;;;;;;1.83;1.73;;;;;;;20.00;100.00;97911.31;5055893;28;20737;-78
2023/07/30 09:10:27;;;;;;;1.80;1.60;;;;;;;20.00;100.00;97914.81;5064677;28;20243;-78
2023/07/30 09:12:58;;;;;;;1.70;1.60;;;;;;;19.96;100.00;97918.34;5074523;28;20250;-78
2023/07/30 09:15:38;;;;;;;3.03;1.60;;;;;;;20.05;100.00;97908.56;5074189;28;20279;-77
2023/07/30 09:18:05;;;;;;;3.43;1.53;;;;;;;20.07;100.00;97912.59;5073759;28;20189;-77
2023/07/30 09:20:42;;;;;;;2.00;1.80;;;;;;;20.09;100.00;97920.44;5073965;28;20200;-77
2023/07/30 09:23:10;;;;;;;2.33;2.13;;;;;;;20.08;100.00;97925.03;5074221;28;20197;-78
2023/07/30 09:25:38;;;;;;;1.90;1.80;;;;;;;20.07;100.00;97923.38;5074293;28;20204;-77
2023/07/30 09:28:06;;;;;;;2.10;1.90;;;;;;;20.02;100.00;97923.44;5074961;28;20204;-77
2023/07/30 09:30:33;;;;;;;2.03;1.93;;;;;;;19.95;100.00;97927.53;5077748;28;20277;-78
2023/07/30 09:32:59;;;;;;;1.87;1.77;;;;;;;20.08;100.00;97932.31;5077139;28;20205;-77
2023/07/30 09:35:27;;;;;;;2.60;2.20;;;;;;;20.03;100.00;97919.63;5076608;28;20610;-78
2023/07/30 09:38:02;;;;;;;2.20;1.90;;;;;;;20.05;100.00;97933.66;5075485;28;20207;-78
2023/07/30 09:40:38;;;;;;;2.03;1.83;;;;;;;20.14;100.00;97925.78;5075179;28;20321;-77
2023/07/30 09:43:06;;;;;;;2.40;2.20;;;;;;;20.12;100.00;97930.69;5075383;28;20238;-79
2023/07/30 09:45:37;;;;;;;1.80;1.70;;;;;;;20.08;100.00;97943.09;5075761;28;20207;-78
2023/07/30 09:48:05;;;;;;;2.63;1.87;;;;;;;20.07;100.00;97936.09;5075114;28;20208;-78
2023/07/30 09:50:32;;;;;;;1.60;1.50;;;;;;;19.93;100.00;97946.72;5075785;28;20250;-78
2023/07/30 09:53:04;;;;;;;1.57;1.47;;;;;;;20.04;100.00;97944.75;5076017;28;20229;-78
2023/07/30 09:55:31;;;;;;;1.77;1.67;;;;;;;19.94;100.00;97942.91;5076993;28;20185;-78
2023/07/30 09:57:58;;;;;;;2.00;1.80;;;;;;;20.03;100.00;97940.44;5076067;28;20204;-78
2023/07/30 10:00:25;;;;;;;1.70;1.60;;;;;;;20.32;100.00;97939.41;5078040;28;20205;-78
2023/07/30 10:02:53;;;;;;;2.33;1.80;;;;;;;20.45;100.00;97940.63;5076643;28;20211;-79
2023/07/30 10:05:23;;;;;;;2.27;2.07;;;;;;;20.62;100.00;97944.50;5056976;28;20201;-79
2023/07/30 10:08:03;;;;;;;2.73;1.80;;;;;;;20.61;100.00;97958.31;5056232;28;20186;-79
2023/07/30 10:10:30;;;;;;;1.93;1.77;;;;;;;20.69;100.00;97960.38;5055988;28;20217;-78
2023/07/30 10:13:06;;;;;;;1.90;1.80;;;;;;;20.72;100.00;97965.22;5055989;28;20572;-78
2023/07/30 10:15:35;;;;;;;1.90;1.80;;;;;;;20.92;100.00;97954.22;5062216;28;20199;-78
2023/07/30 10:18:02;;;;;;;2.10;1.70;;;;;;;21.17;100.00;97960.16;5079013;28;20211;-80
2023/07/30 10:20:29;;;;;;;2.57;1.67;;;;;;;21.28;100.00;97967.06;5076313;28;20199;-79
2023/07/30 10:22:58;;;;;;;2.13;1.83;;;;;;;21.21;100.00;97966.59;5068267;28;20228;-79
2023/07/30 10:25:31;;;;;;;2.13;1.70;;;;;;;21.03;100.00;97961.13;5074799;28;20203;-79
2023/07/30 10:27:59;;;;;;;2.93;1.97;;;;;;;20.84;97.90;97968.34;5065811;28;20271;-78
2023/07/30 10:30:32;;;;;;;2.27;1.97;;;;;;;20.97;98.67;97973.91;5066147;28;20225;-78
2023/07/30 10:33:04;;;;;;;2.23;1.80;;;;;;;21.16;98.34;97961.25;5065594;28;20197;-79
2023/07/30 10:35:40;;;;;;;3.37;1.90;;;;;;;21.34;100.00;97956.97;5064685;28;20210;-79
2023/07/30 10:38:35;;;;;;;2.57;2.10;;;;;;;21.40;90.86;97956.63;5064622;28;20221;-79
2023/07/30 10:41:10;;;;;;;2.17;1.70;;;;;;;21.58;98.08;97955.84;5064430;28;20197;-80
2023/07/30 10:43:44;;;;;;;3.20;1.90;;;;;;;21.32;92.26;97942.94;5065447;28;20238;-79
2023/07/30 10:46:12;;;;;;;2.20;2.00;;;;;;;21.44;91.38;97951.44;5066878;28;20210;-78
2023/07/30 10:48:41;;;;;;;2.70;2.10;;;;;;;21.29;94.26;97960.53;5063986;28;20703;-79
2023/07/30 10:51:10;;;;;;;2.13;1.93;;;;;;;21.53;98.11;97963.22;5063092;28;20247;-78
2023/07/30 10:53:37;;;;;;;4.63;2.00;;;;;;;21.45;88.84;97955.75;5066736;28;20223;-78
2023/07/30 10:56:05;;;;;;;3.93;1.90;;;;;;;21.42;88.52;97949.00;5063771;28;20197;-78
2023/07/30 10:58:33;;;;;;;1.83;1.67;;;;;;;21.60;95.10;97964.47;5065309;28;20594;-78
2023/07/30 11:01:02;;;;;;;2.33;1.93;;;;;;;21.62;89.38;97964.19;5060963;28;20620;-77
2023/07/30 11:03:28;;;;;;;2.57;2.10;;;;;;;21.56;88.55;97959.94;5061674;28;20201;-77
2023/07/30 11:05:56;;;;;;;2.13;2.00;;;;;;;21.51;90.42;97959.97;5063776;28;20220;-78
2023/07/30 11:08:42;;;;;;;2.70;2.03;;;;;;;21.35;93.74;97956.66;5063196;28;20726;-79
2023/07/30 11:11:11;;;;;;;2.53;1.90;;;;;;;21.11;94.73;97968.63;5063460;28;20221;-78
2023/07/30 11:13:39;;;;;;;2.70;1.80;;;;;;;21.05;91.25;97967.06;5064269;28;20208;-78
2023/07/30 11:16:10;;;;;;;2.10;1.90;;;;;;;21.22;87.67;97976.31;5062831;28;20208;-78
2023/07/30 11:19:26;;;;;;;2.97;1.90;;;;;;;21.10;90.41;97967.00;5062631;28;20235;-77
2023/07/30 11:21:54;;;;;;;2.73;1.73;;;;;;;21.28;90.07;97969.75;5060761;28;20215;-79
2023/07/30 11:24:24;;;;;;;2.33;1.83;;;;;;;21.08;86.75;97978.13;5063268;28;20204;-78
2023/07/30 11:27:01;;;;;;;4.63;2.00;;;;;;;21.14;87.98;97968.03;5065909;28;20212;-78